Time;durP1;ratioP1;P1;durP2;ratioP2;P2;SDS_P1;SDS_P2;PMS_P1;PMS_P2;Temp;Humidity;BMP_temperature;BMP_pressure;BME280_temperature;BME280_humidity;BME280_pressure;Samples;Min_cycle;Max_cycle;Signal;HPM_P1;HPM_P2
2022/06/02 00:00:26;;;;;;;;;;;;;;;20.01;64.31;100753.97;1778258;79;20230;-53
2022/06/02 00:03:50;;;;;;;;;;;;;;;20.00;64.40;100734.19;1776637;80;20571;-52
2022/06/02 00:07:17;;;;;;;;;;;;;;;19.99;64.40;100740.84;1776513;80;20187;-53
2022/06/02 00:10:50;;;;;;;;;;;;;;;19.96;64.38;100737.12;1776710;79;20202;-55
2022/06/02 00:14:14;;;;;;;;;;;;;;;19.94;64.46;100728.16;1689459;83;20588;-53
2022/06/02 00:17:37;;;;;;;;;;;;;;;19.92;64.55;100729.77;1714411;83;20203;-54
2022/06/02 00:20:49;;;;;;;;;;;;;;;19.90;64.69;100731.09;1776848;80;20191;-53
2022/06/02 00:24:17;;;;;;;;;;;;;;;19.88;64.82;100724.38;1777949;79;20183;-52
2022/06/02 00:27:29;;;;;;;;;;;;;;;19.88;64.91;100727.69;1811899;79;20193;-53
2022/06/02 00:30:36;;;;;;;;;;;;;;;19.86;64.93;100734.86;1800265;79;20271;-53
2022/06/02 00:33:56;;;;;;;;;;;;;;;19.82;64.90;100734.16;1813980;79;20189;-53
2022/06/02 00:37:28;;;;;;;;;;;;;;;19.77;64.90;100737.63;1814473;79;20185;-53
2022/06/02 00:40:33;;;;;;;;;;;;;;;19.74;64.97;100746.38;1814540;79;20553;-54
2022/06/02 00:43:41;;;;;;;;;;;;;;;19.74;65.17;100735.83;1814594;79;20189;-54
2022/06/02 00:47:11;;;;;;;;;;;;;;;19.74;65.35;100740.83;1807803;79;20303;-53
2022/06/02 00:50:29;;;;;;;;;;;;;;;19.74;65.50;100738.61;1811291;79;20257;-53
2022/06/02 00:53:43;;;;;;;;;;;;;;;19.75;65.62;100739.77;1814593;79;20272;-53
2022/06/02 01:00:51;;;;;;;;;;;;;;;19.78;65.83;100739.84;1814027;79;20197;-53
2022/06/02 01:03:56;;;;;;;;;;;;;;;19.78;65.89;100736.53;1814569;79;20223;-53
2022/06/02 01:07:18;;;;;;;;;;;;;;;19.78;65.96;100730.98;1814670;79;20292;-56
2022/06/02 01:10:38;;;;;;;;;;;;;;;19.80;66.01;100730.22;1810574;79;20221;-52
2022/06/02 01:14:01;;;;;;;;;;;;;;;19.81;66.09;100736.61;1809574;79;20205;-53
2022/06/02 01:17:15;;;;;;;;;;;;;;;19.81;66.16;100732.44;1812815;79;20217;-57
2022/06/02 01:20:34;;;;;;;;;;;;;;;19.83;66.21;100737.23;1814493;79;20190;-53
2022/06/02 01:23:57;;;;;;;;;;;;;;;19.83;66.20;100740.02;1809122;79;20232;-53
2022/06/02 01:27:27;;;;;;;;;;;;;;;19.83;66.20;100731.68;1786510;79;20202;-53
2022/06/02 01:30:57;;;;;;;;;;;;;;;19.82;66.22;100736.94;1777987;79;20222;-52
2022/06/02 01:34:26;;;;;;;;;;;;;;;19.81;66.20;100740.24;1777262;80;20210;-52
2022/06/02 01:37:34;;;;;;;;;;;;;;;19.79;66.22;100732.66;1777524;79;20242;-52
2022/06/02 01:40:45;;;;;;;;;;;;;;;19.79;66.26;100731.28;1777576;79;20179;-52
2022/06/02 01:43:56;;;;;;;;;;;;;;;19.81;66.36;100742.16;1777222;80;20271;-53
2022/06/02 01:47:05;;;;;;;;;;;;;;;19.82;66.46;100736.94;1770217;80;20195;-53
2022/06/02 01:50:29;;;;;;;;;;;;;;;19.85;66.54;100735.09;1777433;80;20299;-53
2022/06/02 01:53:47;;;;;;;;;;;;;;;19.88;66.60;100741.58;1753360;80;20200;-52
2022/06/02 01:57:24;;;;;;;;;;;;;;;19.93;66.71;100734.80;1746595;81;20237;-52
2022/06/02 02:00:34;;;;;;;;;;;;;;;19.99;66.74;100736.66;1750569;81;20254;-53
2022/06/02 02:03:43;;;;;;;;;;;;;;;20.00;66.75;100740.61;1746653;81;20205;-52
2022/06/02 02:06:53;;;;;;;;;;;;;;;20.03;66.75;100735.11;1677433;85;20197;-54
2022/06/02 02:10:08;;;;;;;;;;;;;;;20.06;66.78;100730.52;1747080;81;20197;-54
2022/06/02 02:13:37;;;;;;;;;;;;;;;20.09;66.80;100723.93;1746317;82;20193;-54
2022/06/02 02:16:57;;;;;;;;;;;;;;;20.12;66.85;100730.42;1746267;81;20525;-54
2022/06/02 02:20:18;;;;;;;;;;;;;;;20.15;66.87;100730.55;1746826;81;20201;-53
2022/06/02 02:23:38;;;;;;;;;;;;;;;20.17;66.90;100724.23;1746190;81;20541;-53
2022/06/02 02:26:47;;;;;;;;;;;;;;;20.17;66.97;100720.06;1706662;79;20179;-54
2022/06/02 02:30:05;;;;;;;;;;;;;;;20.19;67.03;100722.05;1763263;81;20239;-54
2022/06/02 02:33:32;;;;;;;;;;;;;;;20.22;67.13;100727.14;1761245;81;20264;-54
2022/06/02 02:37:00;;;;;;;;;;;;;;;20.23;67.20;100735.82;1763246;81;20196;-54
2022/06/02 02:40:14;;;;;;;;;;;;;;;20.24;67.21;100743.06;1763271;81;20220;-52
2022/06/02 02:43:38;;;;;;;;;;;;;;;20.23;67.25;100735.25;1763194;81;20196;-56
2022/06/02 02:47:00;;;;;;;;;;;;;;;20.22;67.30;100748.00;1763292;80;20560;-54
2022/06/02 02:50:38;;;;;;;;;;;;;;;20.22;67.39;100757.73;1699971;84;20244;-51
2022/06/02 02:53:46;;;;;;;;;;;;;;;20.21;67.38;100755.52;1762138;81;20236;-52
2022/06/02 02:57:04;;;;;;;;;;;;;;;20.23;67.44;100765.02;1713771;83;20657;-51
2022/06/02 03:00:22;;;;;;;;;;;;;;;20.26;67.48;100767.33;1776764;79;20567;-53
2022/06/02 03:03:33;;;;;;;;;;;;;;;20.27;67.52;100764.32;1809383;79;20194;-53
2022/06/02 03:06:43;;;;;;;;;;;;;;;20.32;67.57;100773.36;1809139;79;20208;-53
2022/06/02 03:09:52;;;;;;;;;;;;;;;20.34;67.63;100778.98;1809266;79;20235;-51
2022/06/02 03:13:09;;;;;;;;;;;;;;;20.39;67.69;100815.31;1809010;79;20540;-52
2022/06/02 03:16:15;;;;;;;;;;;;;;;20.45;67.73;100794.09;1796252;79;20238;-51
2022/06/02 03:19:37;;;;;;;;;;;;;;;20.50;67.75;100790.08;1792978;80;20249;-51
2022/06/02 03:22:53;;;;;;;;;;;;;;;20.56;67.76;100787.77;1795783;80;20201;-52
2022/06/02 03:26:06;;;;;;;;;;;;;;;20.61;67.73;100776.80;1793026;80;20573;-53
2022/06/02 03:29:30;;;;;;;;;;;;;;;20.66;67.76;100779.17;1793255;79;20293;-49
2022/06/02 03:32:45;;;;;;;;;;;;;;;20.71;67.71;100782.12;1795625;80;20229;-53
2022/06/02 03:36:01;;;;;;;;;;;;;;;20.76;67.75;100793.94;1795599;80;20178;-51
2022/06/02 03:39:10;;;;;;;;;;;;;;;20.81;67.75;100789.92;1793352;80;20217;-53
2022/06/02 03:42:24;;;;;;;;;;;;;;;20.89;67.75;100777.62;1795858;80;20182;-53
2022/06/02 03:45:37;;;;;;;;;;;;;;;20.94;67.75;100771.67;1793799;79;20218;-53
2022/06/02 03:49:06;;;;;;;;;;;;;;;21.02;67.79;100778.35;1793195;80;20263;-52
2022/06/02 03:52:30;;;;;;;;;;;;;;;21.11;67.75;100779.72;1801234;77;20568;-51
2022/06/02 03:55:45;;;;;;;;;;;;;;;21.23;67.75;100776.44;1812961;79;20193;-52
2022/06/02 03:59:05;;;;;;;;;;;;;;;21.37;67.75;100780.76;1814214;79;20552;-51
2022/06/02 04:02:18;;;;;;;;;;;;;;;21.49;67.74;100773.81;1813623;79;20240;-52
2022/06/02 04:05:43;;;;;;;;;;;;;;;21.63;67.80;100769.20;1806858;79;20189;-51
2022/06/02 04:09:02;;;;;;;;;;;;;;;21.73;67.82;100771.41;1791141;78;20267;-52
2022/06/02 04:15:58;;;;;;;;;;;;;;;21.85;67.72;100789.05;1807515;79;20241;-51
2022/06/02 04:23:22;;;;;;;;;;;;;;;21.91;67.52;100816.80;1809084;79;20185;-52
2022/06/02 04:27:01;;;;;;;;;;;;;;;21.89;67.50;100824.58;1810843;79;20580;-51
2022/06/02 04:30:29;;;;;;;;;;;;;;;21.85;67.53;100810.79;1810393;79;20225;-53
2022/06/02 04:33:49;;;;;;;;;;;;;;;21.83;67.63;100848.37;1814050;79;20517;-52
2022/06/02 04:36:59;;;;;;;;;;;;;;;21.80;67.71;100847.45;1814431;79;20581;-53
2022/06/02 04:40:27;;;;;;;;;;;;;;;21.75;67.73;100841.20;1807178;78;20225;-52
2022/06/02 04:43:40;;;;;;;;;;;;;;;21.73;67.77;100840.55;1799448;78;20208;-52
2022/06/02 04:46:49;;;;;;;;;;;;;;;21.70;67.80;100853.57;1814474;79;20181;-53
2022/06/02 04:50:13;;;;;;;;;;;;;;;21.69;67.77;100852.41;1814454;79;20209;-53
2022/06/02 04:53:25;;;;;;;;;;;;;;;21.66;67.82;100866.83;1804567;78;20224;-53
2022/06/02 04:56:32;;;;;;;;;;;;;;;21.66;67.91;100872.40;1779614;80;20203;-54
2022/06/02 04:59:49;;;;;;;;;;;;;;;21.67;68.06;100877.73;1810761;79;20636;-53
2022/06/02 05:03:01;;;;;;;;;;;;;;;21.70;68.11;100885.63;1804767;79;20595;-54
2022/06/02 05:06:36;;;;;;;;;;;;;;;21.72;68.05;100878.41;1790510;79;20648;-53
2022/06/02 05:09:37;;;;;;;;;;;;;;;21.72;68.01;100882.03;1807735;79;20256;-54
2022/06/02 05:12:50;;;;;;;;;;;;;;;21.73;68.00;100876.78;1784422;79;20220;-54
2022/06/02 05:16:05;;;;;;;;;;;;;;;21.74;67.96;100880.43;1797659;79;20221;-54
2022/06/02 05:19:13;;;;;;;;;;;;;;;21.76;67.89;100869.38;1812381;78;20564;-52
2022/06/02 05:22:09;;;;;;;;;;;;;;;21.81;67.99;100868.66;1811482;78;20267;-53
2022/06/02 05:25:14;;;;;;;;;;;;;;;21.85;68.00;100858.18;1798793;78;20212;-53
2022/06/02 05:28:33;;;;;;;;;;;;;;;21.88;67.94;100860.49;1799452;79;20573;-53
2022/06/02 05:32:00;;;;;;;;;;;;;;;21.87;67.96;100866.30;1780637;78;20602;-53
2022/06/02 05:35:15;;;;;;;;;;;;;;;21.87;67.97;100873.27;1798963;79;20268;-53
2022/06/02 05:38:42;;;;;;;;;;;;;;;21.85;67.97;100881.05;1796913;78;20229;-54
2022/06/02 05:42:02;;;;;;;;;;;;;;;21.82;68.00;100894.04;1680283;84;20516;-51
2022/06/02 05:45:26;;;;;;;;;;;;;;;21.79;68.04;100888.41;1809314;79;20232;-52
2022/06/02 05:48:37;;;;;;;;;;;;;;;21.71;68.11;100890.63;1805984;77;20371;-51
2022/06/02 05:51:53;;;;;;;;;;;;;;;21.68;68.29;100887.78;1782206;80;20536;-52
2022/06/02 05:55:20;;;;;;;;;;;;;;;21.64;68.29;100887.10;1780251;80;20710;-54
2022/06/02 05:58:33;;;;;;;;;;;;;;;21.61;68.45;100898.16;1780272;80;20294;-55
2022/06/02 06:01:48;;;;;;;;;;;;;;;21.60;68.46;100907.62;1801071;78;20270;-54
2022/06/02 06:05:26;;;;;;;;;;;;;;;21.58;68.49;100899.20;1808708;79;20211;-54
2022/06/02 06:08:54;;;;;;;;;;;;;;;21.57;68.49;100909.48;1798300;79;20604;-54
2022/06/02 06:12:31;;;;;;;;;;;;;;;21.55;68.50;100896.32;1808626;79;20232;-61
2022/06/02 06:16:02;;;;;;;;;;;;;;;21.50;68.59;100894.77;1809018;79;20212;-59
2022/06/02 06:19:29;;;;;;;;;;;;;;;21.53;68.78;100888.73;1799990;78;20613;-62
2022/06/02 06:23:07;;;;;;;;;;;;;;;21.57;68.82;100886.33;1802001;79;20311;-61
2022/06/02 06:26:23;;;;;;;;;;;;;;;21.61;68.93;100877.26;1813254;79;20260;-61
2022/06/02 06:29:39;;;;;;;;;;;;;;;21.68;69.08;100881.35;1808857;79;20284;-61
2022/06/02 06:32:49;;;;;;;;;;;;;;;21.71;69.04;100883.66;1793461;79;20256;-61
2022/06/02 06:36:19;;;;;;;;;;;;;;;21.69;69.03;100875.53;1790294;79;20247;-61
2022/06/02 06:39:35;;;;;;;;;;;;;;;21.71;69.17;100877.55;1778577;80;20216;-62
2022/06/02 06:43:03;;;;;;;;;;;;;;;21.83;69.25;100886.86;1783644;79;20249;-62
2022/06/02 06:46:30;;;;;;;;;;;;;;;21.98;69.32;100881.69;1775485;80;20605;-62
2022/06/02 06:49:55;;;;;;;;;;;;;;;22.15;69.36;100894.41;1782937;80;20243;-61
2022/06/02 06:53:18;;;;;;;;;;;;;;;22.26;69.25;100906.68;1757056;81;20247;-61
2022/06/02 06:56:30;;;;;;;;;;;;;;;22.35;69.21;100915.00;1766153;79;20260;-61
2022/06/02 06:59:39;;;;;;;;;;;;;;;22.42;69.21;100908.20;1780571;79;20233;-65
2022/06/02 07:02:48;;;;;;;;;;;;;;;22.49;69.17;100913.14;1767717;80;20466;-62
2022/06/02 07:06:02;;;;;;;;;;;;;;;22.56;69.23;100909.74;1786207;80;20210;-58
2022/06/02 07:09:28;;;;;;;;;;;;;;;22.66;69.18;100917.52;1776999;79;20579;-59
2022/06/02 07:12:54;;;;;;;;;;;;;;;22.74;69.12;100918.56;1788961;79;20222;-57
2022/06/02 07:16:28;;;;;;;;;;;;;;;22.85;69.02;100926.09;1812246;78;20294;-61
2022/06/02 07:19:45;;;;;;;;;;;;;;;22.96;68.93;100918.25;1828920;78;20595;-61
2022/06/02 07:23:08;;;;;;;;;;;;;;;23.06;68.88;100908.16;1825671;78;20583;-62
2022/06/02 07:26:31;;;;;;;;;;;;;;;23.16;68.87;100910.33;1765662;81;20316;-63
2022/06/02 07:30:00;;;;;;;;;;;;;;;23.29;68.81;100914.30;1765523;81;20596;-60
2022/06/02 07:33:23;;;;;;;;;;;;;;;23.41;68.83;100913.71;1775977;79;20215;-60
2022/06/02 07:36:52;;;;;;;;;;;;;;;23.48;68.70;100908.84;1778900;80;20212;-61
2022/06/02 07:40:11;;;;;;;;;;;;;;;23.50;68.73;100900.50;1772280;80;20292;-62
2022/06/02 07:43:38;;;;;;;;;;;;;;;23.63;68.74;100903.55;1779902;80;20219;-60
2022/06/02 07:47:00;;;;;;;;;;;;;;;23.74;68.78;100905.45;1780050;79;20660;-61
2022/06/02 07:50:40;;;;;;;;;;;;;;;23.95;68.81;100903.38;1802866;78;20259;-58
2022/06/02 07:54:12;;;;;;;;;;;;;;;24.09;68.65;100913.18;1784267;79;20176;-60
2022/06/02 07:57:41;;;;;;;;;;;;;;;24.17;68.49;100914.17;1784511;79;20947;-59
2022/06/02 08:00:57;;;;;;;;;;;;;;;24.28;68.53;100919.39;1789491;79;20278;-59
2022/06/02 08:04:17;;;;;;;;;;;;;;;24.34;68.37;100918.41;1797445;79;20514;-60
2022/06/02 08:07:43;;;;;;;;;;;;;;;24.33;68.31;100916.69;1789266;79;20603;-60
2022/06/02 08:11:18;;;;;;;;;;;;;;;24.36;68.30;100913.38;1785433;78;20233;-59
2022/06/02 08:14:48;;;;;;;;;;;;;;;24.39;68.37;100913.73;1783370;78;20211;-60
2022/06/02 08:18:14;;;;;;;;;;;;;;;24.42;68.34;100910.99;1802410;79;20581;-60
2022/06/02 08:21:25;;;;;;;;;;;;;;;24.46;68.33;100916.37;1775705;80;20239;-60
2022/06/02 08:24:58;;;;;;;;;;;;;;;24.51;68.35;100914.52;1801604;79;20213;-61
2022/06/02 08:28:25;;;;;;;;;;;;;;;24.56;68.24;100916.55;1780756;80;20321;-59
2022/06/02 08:31:44;;;;;;;;;;;;;;;24.61;68.16;100924.47;1780178;79;20262;-56
2022/06/02 08:34:57;;;;;;;;;;;;;;;24.73;68.22;100923.03;1791612;78;20828;-56
2022/06/02 08:38:15;;;;;;;;;;;;;;;24.82;68.09;100922.34;1798178;78;20269;-56
2022/06/02 08:41:43;;;;;;;;;;;;;;;24.96;68.02;100922.82;1802460;79;20201;-58
2022/06/02 08:44:53;;;;;;;;;;;;;;;25.11;68.01;100920.27;1787028;79;20280;-58
2022/06/02 08:48:20;;;;;;;;;;;;;;;25.26;67.96;100927.47;1794038;78;20597;-58
2022/06/02 08:51:40;;;;;;;;;;;;;;;25.33;67.86;100925.34;1707014;81;20245;-57
2022/06/02 08:55:02;;;;;;;;;;;;;;;25.40;67.71;100932.20;1732987;81;20214;-57
2022/06/02 08:58:12;;;;;;;;;;;;;;;25.44;67.65;100924.41;1791469;79;20240;-59
2022/06/02 09:01:21;;;;;;;;;;;;;;;25.50;67.58;100927.56;1793649;78;20577;-58
2022/06/02 09:04:54;;;;;;;;;;;;;;;25.59;67.44;100926.03;1803349;78;20286;-57
2022/06/02 09:08:08;;;;;;;;;;;;;;;25.64;67.35;100926.64;1775514;79;20564;-59
2022/06/02 09:11:25;;;;;;;;;;;;;;;25.67;67.24;100926.94;1737829;80;20216;-59
2022/06/02 09:15:01;;;;;;;;;;;;;;;25.72;67.22;100923.38;1778885;80;20211;-58
2022/06/02 09:18:45;;;;;;;;;;;;;;;25.76;67.10;100922.58;1779232;80;20501;-58
2022/06/02 09:22:20;;;;;;;;;;;;;;;25.81;66.91;100917.59;1778301;80;20682;-58
2022/06/02 09:25:49;;;;;;;;;;;;;;;25.85;66.88;100908.92;1788798;79;20248;-59
2022/06/02 09:29:16;;;;;;;;;;;;;;;25.91;66.68;100891.06;1798702;80;20214;-59
2022/06/02 09:32:32;;;;;;;;;;;;;;;25.93;66.54;100893.88;1798748;80;20253;-59
2022/06/02 09:35:50;;;;;;;;;;;;;;;26.00;66.50;100897.91;1805212;79;20209;-55
2022/06/02 09:39:14;;;;;;;;;;;;;;;26.10;66.40;100893.82;1806675;79;20522;-55
2022/06/02 09:42:39;;;;;;;;;;;;;;;26.12;66.16;100895.78;1806086;79;20209;-56
2022/06/02 09:45:52;;;;;;;;;;;;;;;26.18;66.14;100902.59;1806852;79;20518;-57
2022/06/02 09:49:32;;;;;;;;;;;;;;;26.26;66.10;100899.84;1807246;79;20632;-56
2022/06/02 09:52:43;;;;;;;;;;;;;;;26.40;66.22;100903.36;1773541;81;20207;-57
2022/06/02 09:55:51;;;;;;;;;;;;;;;26.67;66.20;100907.55;1810777;78;20237;-56
2022/06/02 09:59:22;;;;;;;;;;;;;;;26.95;66.14;100905.82;1788426;78;20235;-56
2022/06/02 10:02:32;;;;;;;;;;;;;;;27.17;65.93;100910.73;1743375;81;20240;-57
2022/06/02 10:05:47;;;;;;;;;;;;;;;27.29;65.91;100897.91;1789702;79;20546;-57
2022/06/02 10:09:04;;;;;;;;;;;;;;;27.35;65.77;100882.17;1788966;78;20212;-60
2022/06/02 10:12:57;;;;;;;;;;;;;;;27.33;65.73;100884.44;1708055;83;20235;-59
2022/06/02 10:16:21;;;;;;;;;;;;;;;27.41;65.72;100883.05;1727019;82;20210;-59
2022/06/02 10:19:49;;;;;;;;;;;;;;;27.43;65.62;100884.46;1800482;78;20239;-62
2022/06/02 10:23:07;;;;;;;;;;;;;;;27.49;65.65;100875.50;1794278;78;20210;-60
2022/06/02 10:26:37;;;;;;;;;;;;;;;27.51;65.50;100868.47;1791509;78;20282;-61
2022/06/02 10:30:03;;;;;;;;;;;;;;;27.55;65.47;100858.38;1757547;81;20207;-60
2022/06/02 10:33:25;;;;;;;;;;;;;;;27.59;65.32;100853.87;1800136;79;20570;-62
2022/06/02 10:36:52;;;;;;;;;;;;;;;27.60;65.31;100851.36;1709323;82;20583;-57
2022/06/02 10:40:11;;;;;;;;;;;;;;;27.67;65.33;100842.66;1777437;78;20199;-59
2022/06/02 10:43:45;;;;;;;;;;;;;;;27.70;65.14;100837.30;1780860;78;20199;-59
2022/06/02 10:47:11;;;;;;;;;;;;;;;27.58;64.92;100828.83;1805574;79;20248;-60
2022/06/02 10:50:32;;;;;;;;;;;;;;;27.47;64.77;100833.58;1773980;81;20499;-59
2022/06/02 10:54:08;;;;;;;;;;;;;;;27.40;64.66;100832.16;1798771;79;20272;-58
2022/06/02 10:57:32;;;;;;;;;;;;;;;27.36;64.55;100823.42;1805297;79;20209;-58
2022/06/02 11:00:54;;;;;;;;;;;;;;;27.32;64.44;100828.47;1806888;79;20276;-59
2022/06/02 11:04:23;;;;;;;;;;;;;;;27.31;64.38;100826.20;1806313;79;20510;-58
2022/06/02 11:07:43;;;;;;;;;;;;;;;27.38;64.35;100824.55;1806399;79;20213;-64
2022/06/02 11:11:19;;;;;;;;;;;;;;;27.47;64.23;100820.92;1797584;79;20258;-61
2022/06/02 11:15:01;;;;;;;;;;;;;;;27.60;64.13;100819.00;1799494;78;20493;-61
2022/06/02 11:18:16;;;;;;;;;;;;;;;27.86;64.13;100815.11;1807136;79;20249;-61
2022/06/02 11:21:38;;;;;;;;;;;;;;;28.19;64.17;100822.23;1808775;79;20217;-61
2022/06/02 11:24:54;;;;;;;;;;;;;;;28.46;64.02;100813.48;1800291;79;20240;-61
2022/06/02 11:28:21;;;;;;;;;;;;;;;28.63;63.84;100808.42;1788179;78;20183;-61
2022/06/02 11:31:51;;;;;;;;;;;;;;;28.65;63.59;100807.03;1803426;78;20202;-60
2022/06/02 11:35:33;;;;;;;;;;;;;;;28.65;63.28;100800.53;1775835;78;20263;-61
2022/06/02 11:38:49;;;;;;;;;;;;;;;28.67;63.20;100791.23;1785385;79;20511;-60
2022/06/02 11:42:33;;;;;;;;;;;;;;;28.78;63.20;100788.68;1793821;77;20543;-62
2022/06/02 11:46:15;;;;;;;;;;;;;;;28.95;63.18;100786.37;1798488;78;20247;-60
2022/06/02 11:49:32;;;;;;;;;;;;;;;29.14;63.10;100786.88;1781620;79;20579;-60
2022/06/02 11:53:00;;;;;;;;;;;;;;;29.37;63.09;100789.59;1780631;80;20578;-60
2022/06/02 11:56:26;;;;;;;;;;;;;;;29.55;62.86;100786.13;1778198;80;20271;-61
2022/06/02 11:59:41;;;;;;;;;;;;;;;29.63;62.47;100784.10;1783546;79;20623;-61
2022/06/02 12:03:16;;;;;;;;;;;;;;;29.68;62.28;100784.66;1779857;80;20219;-61
2022/06/02 12:07:03;;;;;;;;;;;;;;;29.74;62.13;100787.17;1779636;80;20219;-61
2022/06/02 12:10:41;;;;;;;;;;;;;;;29.74;61.83;100785.76;1784027;77;20214;-61
2022/06/02 12:14:07;;;;;;;;;;;;;;;29.70;61.54;100788.87;1804783;79;20264;-62
2022/06/02 12:17:35;;;;;;;;;;;;;;;29.71;61.41;100795.37;1808166;79;20217;-56
2022/06/02 12:20:49;;;;;;;;;;;;;;;29.71;61.30;100786.91;1811843;79;20351;-58
2022/06/02 12:24:12;;;;;;;;;;;;;;;29.73;61.13;100786.05;1812003;79;20663;-56
2022/06/02 12:27:35;;;;;;;;;;;;;;;29.75;60.97;100788.84;1812553;79;20965;-57
2022/06/02 12:31:15;;;;;;;;;;;;;;;29.73;60.64;100778.41;1811539;79;20612;-57
2022/06/02 12:34:26;;;;;;;;;;;;;;;29.75;60.52;100771.91;1809886;78;20236;-54
2022/06/02 12:37:54;;;;;;;;;;;;;;;29.76;60.24;100759.50;1792067;79;20221;-56
2022/06/02 12:41:20;;;;;;;;;;;;;;;29.74;60.17;100753.30;1812691;79;20213;-59
2022/06/02 12:44:47;;;;;;;;;;;;;;;29.77;60.01;100748.47;1795755;78;20354;-57
2022/06/02 12:48:06;;;;;;;;;;;;;;;29.79;59.85;100744.79;1762491;81;20212;-57
2022/06/02 12:51:35;;;;;;;;;;;;;;;29.83;59.76;100743.05;1796922;78;20233;-58
2022/06/02 12:55:01;;;;;;;;;;;;;;;29.88;59.63;100742.16;1795464;79;20276;-56
2022/06/02 12:58:15;;;;;;;;;;;;;;;29.93;59.49;100742.13;1780415;80;20203;-56
2022/06/02 13:01:39;;;;;;;;;;;;;;;29.96;59.38;100752.27;1790486;79;20595;-56
2022/06/02 13:05:18;;;;;;;;;;;;;;;30.01;59.21;100755.63;1812840;79;20220;-57
2022/06/02 13:08:39;;;;;;;;;;;;;;;30.02;58.96;100760.97;1795251;78;20219;-59
2022/06/02 13:12:14;;;;;;;;;;;;;;;30.03;58.86;100751.34;1778146;78;20308;-57
2022/06/02 13:15:42;;;;;;;;;;;;;;;30.05;58.80;100760.97;1790421;79;20315;-57
2022/06/02 13:19:14;;;;;;;;;;;;;;;30.09;58.62;100749.34;1723794;82;20253;-59
2022/06/02 13:22:45;;;;;;;;;;;;;;;30.11;58.41;100745.06;1797219;79;20564;-59
2022/06/02 13:26:31;;;;;;;;;;;;;;;30.11;58.29;100740.02;1798774;77;20245;-57
2022/06/02 13:29:58;;;;;;;;;;;;;;;30.10;58.18;100732.09;1811108;78;20593;-57
2022/06/02 13:33:26;;;;;;;;;;;;;;;30.14;58.07;100735.18;1809212;78;20320;-56
2022/06/02 13:36:40;;;;;;;;;;;;;;;30.13;57.92;100734.33;1803092;79;20200;-58
2022/06/02 13:40:25;;;;;;;;;;;;;;;30.16;57.90;100732.91;1744309;81;20206;-54
2022/06/02 13:43:37;;;;;;;;;;;;;;;30.20;57.87;100723.54;1741688;81;20218;-56
2022/06/02 13:47:19;;;;;;;;;;;;;;;30.24;57.75;100721.00;1755692;79;20278;-57
2022/06/02 13:50:50;;;;;;;;;;;;;;;30.28;57.68;100717.28;1743603;81;20592;-57
2022/06/02 13:57:58;;;;;;;;;;;;;;;30.33;57.24;100727.12;1757401;81;20200;-57
2022/06/02 14:01:23;;;;;;;;;;;;;;;30.29;57.12;100719.52;1755069;79;20600;-58
2022/06/02 14:04:44;;;;;;;;;;;;;;;30.29;56.89;100716.13;1753892;81;20304;-58
2022/06/02 14:07:53;;;;;;;;;;;;;;;30.24;56.79;100712.53;1744627;81;20202;-60
2022/06/02 14:11:18;;;;;;;;;;;;;;;30.23;56.77;100706.02;1758387;79;20614;-58
2022/06/02 14:14:50;;;;;;;;;;;;;;;30.26;56.72;100696.09;1762370;81;20799;-58
2022/06/02 14:18:17;;;;;;;;;;;;;;;30.32;56.63;100683.59;1748685;79;20577;-58
2022/06/02 14:21:36;;;;;;;;;;;;;;;30.34;56.55;100670.87;1772892;81;20199;-58
2022/06/02 14:24:57;;;;;;;;;;;;;;;30.37;56.42;100672.24;1764716;81;20214;-60
2022/06/02 14:28:28;;;;;;;;;;;;;;;30.37;56.32;100666.03;1750683;79;20245;-59
2022/06/02 14:31:51;;;;;;;;;;;;;;;30.40;56.21;100668.26;1740035;82;20248;-58
2022/06/02 14:35:13;;;;;;;;;;;;;;;30.41;56.08;100658.63;1745693;81;20654;-58
2022/06/02 14:38:21;;;;;;;;;;;;;;;30.42;55.97;100657.50;1750658;79;20228;-59
2022/06/02 14:41:56;;;;;;;;;;;;;;;30.46;55.92;100650.69;1781632;79;20205;-66
2022/06/02 14:45:08;;;;;;;;;;;;;;;30.48;55.86;100652.06;1718406;82;20211;-64
2022/06/02 14:48:31;;;;;;;;;;;;;;;30.53;55.65;100638.44;1767665;80;20611;-64
2022/06/02 14:51:38;;;;;;;;;;;;;;;30.65;55.49;100635.45;1787886;80;20210;-63
2022/06/02 14:55:02;;;;;;;;;;;;;;;30.81;55.30;100636.70;1784431;79;20202;-64
2022/06/02 14:58:19;;;;;;;;;;;;;;;31.04;55.04;100634.39;1785152;80;20578;-62
2022/06/02 15:01:45;;;;;;;;;;;;;;;31.18;54.88;100630.50;1775038;79;20263;-64
2022/06/02 15:05:09;;;;;;;;;;;;;;;31.35;54.75;100638.50;1796715;78;20274;-66
2022/06/02 15:08:54;;;;;;;;;;;;;;;31.26;54.56;100644.53;1795715;80;20569;-62
2022/06/02 15:12:31;;;;;;;;;;;;;;;31.19;54.55;100648.33;1795983;79;20210;-62
2022/06/02 15:15:53;;;;;;;;;;;;;;;31.17;54.49;100650.62;1793149;80;20209;-63
2022/06/02 15:19:11;;;;;;;;;;;;;;;31.05;54.34;100647.41;1792426;79;20206;-64
2022/06/02 15:22:51;;;;;;;;;;;;;;;30.97;54.37;100641.02;1772866;80;20558;-65
2022/06/02 15:26:07;;;;;;;;;;;;;;;30.90;54.36;100635.73;1772920;80;20197;-63
2022/06/02 15:29:32;;;;;;;;;;;;;;;30.84;54.30;100646.00;1775116;80;20538;-63
2022/06/02 15:32:50;;;;;;;;;;;;;;;30.89;54.29;100632.61;1763276;81;20216;-63
2022/06/02 15:36:20;;;;;;;;;;;;;;;31.06;54.03;100628.72;1764193;81;20316;-62
2022/06/02 15:39:58;;;;;;;;;;;;;;;31.15;53.81;100620.36;1756686;80;20545;-64
2022/06/02 15:43:33;;;;;;;;;;;;;;;31.16;53.79;100616.41;1750338;81;20593;-64
2022/06/02 15:47:02;;;;;;;;;;;;;;;31.30;53.46;100621.56;1777101;79;20218;-64
2022/06/02 15:50:44;;;;;;;;;;;;;;;31.34;53.20;100622.65;1776961;79;20266;-62
2022/06/02 15:54:06;;;;;;;;;;;;;;;31.24;53.14;100614.31;1751322;80;20523;-64
2022/06/02 15:57:31;;;;;;;;;;;;;;;31.21;53.12;100609.23;1776455;79;20561;-62
2022/06/02 16:00:41;;;;;;;;;;;;;;;31.23;53.24;100616.84;1777013;80;20582;-63
2022/06/02 16:04:05;;;;;;;;;;;;;;;31.78;52.95;100625.86;1776576;79;20218;-64
2022/06/02 16:07:35;;;;;;;;;;;;;;;32.49;51.90;100641.03;1760925;80;20292;-63
2022/06/02 16:11:15;;;;;;;;;;;;;;;32.85;51.05;100646.21;1744824;81;20253;-62
2022/06/02 16:14:39;;;;;;;;;;;;;;;32.71;50.82;100650.49;1676718;85;20569;-63
2022/06/02 16:18:13;;;;;;;;;;;;;;;32.37;51.20;100646.36;1745827;82;20511;-64
2022/06/02 16:21:54;;;;;;;;;;;;;;;32.06;51.51;100627.67;1747566;81;20557;-62
2022/06/02 16:25:38;;;;;;;;;;;;;;;31.80;51.78;100635.75;1763819;81;20239;-64
2022/06/02 16:28:49;;;;;;;;;;;;;;;31.59;51.91;100627.89;1769480;80;20305;-62
2022/06/02 16:32:07;;;;;;;;;;;;;;;31.38;52.06;100632.22;1776075;80;20253;-65
2022/06/02 16:35:31;;;;;;;;;;;;;;;31.18;52.18;100636.73;1755372;80;20306;-63
2022/06/02 16:38:55;;;;;;;;;;;;;;;30.96;52.24;100640.73;1775840;79;20527;-64
2022/06/02 16:42:37;;;;;;;;;;;;;;;30.72;52.35;100652.05;1756821;79;20835;-62
2022/06/02 16:45:49;;;;;;;;;;;;;;;30.44;52.46;100633.18;1738991;81;20237;-65
2022/06/02 16:49:10;;;;;;;;;;;;;;;30.12;52.59;100618.25;1750844;81;20525;-64
2022/06/02 16:52:32;;;;;;;;;;;;;;;29.89;52.74;100628.92;1741963;80;20216;-61
2022/06/02 16:55:56;;;;;;;;;;;;;;;29.67;52.87;100655.38;1742677;82;20271;-64
2022/06/02 16:59:38;;;;;;;;;;;;;;;29.45;52.96;100671.07;1747564;81;20289;-62
2022/06/02 17:03:16;;;;;;;;;;;;;;;29.22;53.08;100708.70;1743158;81;20532;-62
2022/06/02 17:06:44;;;;;;;;;;;;;;;28.92;52.90;100769.44;1748058;81;20881;-62
2022/06/02 17:10:13;;;;;;;;;;;;;;;28.17;52.40;100779.42;1768834;81;20518;-63
2022/06/02 17:13:21;;;;;;;;;;;;;;;27.66;52.44;100786.94;1767650;80;20222;-62
2022/06/02 17:16:46;;;;;;;;;;;;;;;27.18;52.38;100764.81;1768721;81;20217;-63
2022/06/02 17:20:04;;;;;;;;;;;;;;;26.75;52.41;100738.48;1764320;81;20556;-65
2022/06/02 17:23:31;;;;;;;;;;;;;;;26.39;52.55;100712.69;1768996;81;20214;-64
2022/06/02 17:26:51;;;;;;;;;;;;;;;26.14;52.70;100724.61;1768230;81;20567;-64
2022/06/02 17:30:13;;;;;;;;;;;;;;;25.83;52.79;100709.17;1739286;82;20214;-64
2022/06/02 17:33:25;;;;;;;;;;;;;;;25.53;52.90;100706.09;1739406;82;20213;-64